Weather at Tutong Heliport

Public forecast

Using degrees Celsius for public forecast. Weather courtesy of forecast.io.

Closest aviation weather report (METAR) to Tutong Heliport

Closest report is Brunei International Airport, 17.3 nm (32.0 km) ENE.

2022/12/01 00:00 (retrieved 28 minutes ago)

WBSB 010000Z 19005KT 9999 FEW005 FEW015CB SCT140 BKN300 26/25 Q1008 NOSIG

Closest aviation forecast (TAF) to Tutong Heliport

Forecast is more than 6 hours old.

Closest forecast is Mattala Rajapaksa International Airport, 2,006.1 nm (3,715.3 km) W.

2022/11/30 18:00 (retrieved 6 hours ago)

TAF VCRI 301700Z 3018/0124 VRB05KT 9999 FEW018 TX33/0107Z TN22/0100Z TEMPO 3022/0102 8000 PROB30 TEMPO 0108/0116 7000 -TSRA/SHRA FEW018 FEW020CB